sensor_id;sensor_type;location;lat;lon;timestamp;temperature;humidity
21149;DHT22;10732;51.472;6.466;2022-10-16T00:01:55;12.80;99.90
21149;DHT22;10732;51.472;6.466;2022-10-16T00:04:21;12.80;99.90
21149;DHT22;10732;51.472;6.466;2022-10-16T00:06:46;12.80;99.90
21149;DHT22;10732;51.472;6.466;2022-10-16T00:09:12;12.70;99.90
21149;DHT22;10732;51.472;6.466;2022-10-16T00:11:39;12.80;99.90
21149;DHT22;10732;51.472;6.466;2022-10-16T00:14:09;12.80;99.90
21149;DHT22;10732;51.472;6.466;2022-10-16T00:16:35;12.80;99.90
21149;DHT22;10732;51.472;6.466;2022-10-16T00:19:01;12.80;99.90
21149;DHT22;10732;51.472;6.466;2022-10-16T00:21:28;12.80;99.90
21149;DHT22;10732;51.472;6.466;2022-10-16T00:24:00;12.90;99.90
21149;DHT22;10732;51.472;6.466;2022-10-16T00:26:27;12.90;99.90
21149;DHT22;10732;51.472;6.466;2022-10-16T00:28:53;12.90;99.90
21149;DHT22;10732;51.472;6.466;2022-10-16T00:31:22;12.90;99.90
21149;DHT22;10732;51.472;6.466;2022-10-16T00:33:49;12.90;99.90
21149;DHT22;10732;51.472;6.466;2022-10-16T00:36:17;12.90;99.90
21149;DHT22;10732;51.472;6.466;2022-10-16T00:38:43;12.90;99.90
21149;DHT22;10732;51.472;6.466;2022-10-16T00:41:13;12.90;99.90
21149;DHT22;10732;51.472;6.466;2022-10-16T00:43:51;12.90;99.90
21149;DHT22;10732;51.472;6.466;2022-10-16T00:51:35;12.80;99.90
21149;DHT22;10732;51.472;6.466;2022-10-16T00:54:03;12.80;99.90
21149;DHT22;10732;51.472;6.466;2022-10-16T00:56:29;12.70;99.90
21149;DHT22;10732;51.472;6.466;2022-10-16T00:58:54;12.70;99.90
21149;DHT22;10732;51.472;6.466;2022-10-16T01:01:20;12.70;99.90
21149;DHT22;10732;51.472;6.466;2022-10-16T01:03:46;12.70;99.90
21149;DHT22;10732;51.472;6.466;2022-10-16T01:06:22;12.70;99.90
21149;DHT22;10732;51.472;6.466;2022-10-16T01:08:58;12.70;99.90
21149;DHT22;10732;51.472;6.466;2022-10-16T01:14:10;12.60;99.90
21149;DHT22;10732;51.472;6.466;2022-10-16T01:16:53;12.60;99.90
21149;DHT22;10732;51.472;6.466;2022-10-16T01:19:50;12.70;99.90
21149;DHT22;10732;51.472;6.466;2022-10-16T01:22:20;12.70;99.90
21149;DHT22;10732;51.472;6.466;2022-10-16T01:24:50;12.70;99.90
21149;DHT22;10732;51.472;6.466;2022-10-16T01:27:25;12.70;99.90
21149;DHT22;10732;51.472;6.466;2022-10-16T01:30:07;12.80;99.90
21149;DHT22;10732;51.472;6.466;2022-10-16T01:35:18;12.80;99.90
21149;DHT22;10732;51.472;6.466;2022-10-16T01:40:26;12.80;99.90
21149;DHT22;10732;51.472;6.466;2022-10-16T01:43:07;12.80;99.90
21149;DHT22;10732;51.472;6.466;2022-10-16T01:45:35;12.80;99.90
21149;DHT22;10732;51.472;6.466;2022-10-16T01:48:04;12.70;99.90
21149;DHT22;10732;51.472;6.466;2022-10-16T01:50:37;12.70;99.90
21149;DHT22;10732;51.472;6.466;2022-10-16T01:53:05;12.60;99.90
21149;DHT22;10732;51.472;6.466;2022-10-16T01:55:37;12.60;99.90
21149;DHT22;10732;51.472;6.466;2022-10-16T01:58:06;12.60;99.90
21149;DHT22;10732;51.472;6.466;2022-10-16T02:00:34;12.50;99.90
21149;DHT22;10732;51.472;6.466;2022-10-16T02:03:02;12.60;99.90
21149;DHT22;10732;51.472;6.466;2022-10-16T02:05:32;12.50;99.90
21149;DHT22;10732;51.472;6.466;2022-10-16T02:07:59;12.60;99.90
21149;DHT22;10732;51.472;6.466;2022-10-16T02:10:25;12.50;99.90
21149;DHT22;10732;51.472;6.466;2022-10-16T02:13:01;12.50;99.90
21149;DHT22;10732;51.472;6.466;2022-10-16T02:15:29;12.50;99.90
21149;DHT22;10732;51.472;6.466;2022-10-16T02:17:54;12.60;99.90
21149;DHT22;10732;51.472;6.466;2022-10-16T02:20:27;12.60;99.90
21149;DHT22;10732;51.472;6.466;2022-10-16T02:22:56;12.50;99.90
21149;DHT22;10732;51.472;6.466;2022-10-16T02:25:36;12.60;99.90
21149;DHT22;10732;51.472;6.466;2022-10-16T02:28:04;12.50;99.90
21149;DHT22;10732;51.472;6.466;2022-10-16T02:30:48;12.50;99.90
21149;DHT22;10732;51.472;6.466;2022-10-16T02:33:16;12.50;99.90
21149;DHT22;10732;51.472;6.466;2022-10-16T02:35:44;12.60;99.90
21149;DHT22;10732;51.472;6.466;2022-10-16T02:38:11;12.50;99.90
21149;DHT22;10732;51.472;6.466;2022-10-16T02:40:38;12.50;99.90
21149;DHT22;10732;51.472;6.466;2022-10-16T02:43:04;12.50;99.90
21149;DHT22;10732;51.472;6.466;2022-10-16T02:45:30;12.50;99.90
21149;DHT22;10732;51.472;6.466;2022-10-16T02:47:56;12.50;99.90
21149;DHT22;10732;51.472;6.466;2022-10-16T02:50:21;12.50;99.90
21149;DHT22;10732;51.472;6.466;2022-10-16T02:52:48;12.60;99.90
21149;DHT22;10732;51.472;6.466;2022-10-16T02:55:13;12.50;99.90
21149;DHT22;10732;51.472;6.466;2022-10-16T02:57:39;12.50;99.90
21149;DHT22;10732;51.472;6.466;2022-10-16T03:00:09;12.50;99.90
21149;DHT22;10732;51.472;6.466;2022-10-16T03:02:35;12.50;99.90
21149;DHT22;10732;51.472;6.466;2022-10-16T03:05:00;12.60;99.90
21149;DHT22;10732;51.472;6.466;2022-10-16T03:07:26;12.60;99.90
21149;DHT22;10732;51.472;6.466;2022-10-16T03:09:51;12.60;99.90
21149;DHT22;10732;51.472;6.466;2022-10-16T03:12:17;12.60;99.90
21149;DHT22;10732;51.472;6.466;2022-10-16T03:14:43;12.60;99.90
21149;DHT22;10732;51.472;6.466;2022-10-16T03:17:08;12.60;99.90
21149;DHT22;10732;51.472;6.466;2022-10-16T03:19:34;12.60;99.90
21149;DHT22;10732;51.472;6.466;2022-10-16T03:22:01;12.70;99.90
21149;DHT22;10732;51.472;6.466;2022-10-16T03:24:27;12.80;99.90
21149;DHT22;10732;51.472;6.466;2022-10-16T03:26:52;12.80;99.90
21149;DHT22;10732;51.472;6.466;2022-10-16T03:29:18;12.80;99.90
21149;DHT22;10732;51.472;6.466;2022-10-16T03:31:43;12.80;99.90
21149;DHT22;10732;51.472;6.466;2022-10-16T03:34:09;12.70;99.90
21149;DHT22;10732;51.472;6.466;2022-10-16T03:36:34;12.70;99.90
21149;DHT22;10732;51.472;6.466;2022-10-16T03:39:00;12.60;99.90
21149;DHT22;10732;51.472;6.466;2022-10-16T03:41:26;12.70;99.90
21149;DHT22;10732;51.472;6.466;2022-10-16T03:43:51;12.70;99.90
21149;DHT22;10732;51.472;6.466;2022-10-16T03:46:17;12.70;99.90
21149;DHT22;10732;51.472;6.466;2022-10-16T03:48:42;12.60;99.90
21149;DHT22;10732;51.472;6.466;2022-10-16T03:51:08;12.60;99.90
21149;DHT22;10732;51.472;6.466;2022-10-16T03:53:33;12.60;99.90
21149;DHT22;10732;51.472;6.466;2022-10-16T03:55:59;12.60;99.90
21149;DHT22;10732;51.472;6.466;2022-10-16T03:58:25;12.60;99.90
21149;DHT22;10732;51.472;6.466;2022-10-16T04:00:50;12.60;99.90
21149;DHT22;10732;51.472;6.466;2022-10-16T04:03:16;12.60;99.90
21149;DHT22;10732;51.472;6.466;2022-10-16T04:05:42;12.60;99.90
21149;DHT22;10732;51.472;6.466;2022-10-16T04:08:08;12.60;99.90
21149;DHT22;10732;51.472;6.466;2022-10-16T04:10:33;12.60;99.90
21149;DHT22;10732;51.472;6.466;2022-10-16T04:13:00;12.60;99.90
21149;DHT22;10732;51.472;6.466;2022-10-16T04:15:26;12.60;99.90
21149;DHT22;10732;51.472;6.466;2022-10-16T04:17:52;12.60;99.90
21149;DHT22;10732;51.472;6.466;2022-10-16T04:20:18;12.50;99.90
21149;DHT22;10732;51.472;6.466;2022-10-16T04:22:44;12.50;99.90
21149;DHT22;10732;51.472;6.466;2022-10-16T04:25:09;12.60;99.90
21149;DHT22;10732;51.472;6.466;2022-10-16T04:27:36;12.50;99.90
21149;DHT22;10732;51.472;6.466;2022-10-16T04:30:02;12.50;99.90
21149;DHT22;10732;51.472;6.466;2022-10-16T04:32:28;12.50;99.90
21149;DHT22;10732;51.472;6.466;2022-10-16T04:34:53;12.50;99.90
21149;DHT22;10732;51.472;6.466;2022-10-16T04:37:23;12.50;99.90
21149;DHT22;10732;51.472;6.466;2022-10-16T04:39:49;12.50;99.90
21149;DHT22;10732;51.472;6.466;2022-10-16T04:42:14;12.50;99.90
21149;DHT22;10732;51.472;6.466;2022-10-16T04:44:40;12.50;99.90
21149;DHT22;10732;51.472;6.466;2022-10-16T04:47:05;12.50;99.90
21149;DHT22;10732;51.472;6.466;2022-10-16T04:49:31;12.50;99.90
21149;DHT22;10732;51.472;6.466;2022-10-16T04:51:56;12.50;99.90
21149;DHT22;10732;51.472;6.466;2022-10-16T04:54:22;12.50;99.90
21149;DHT22;10732;51.472;6.466;2022-10-16T04:56:47;12.50;99.90
21149;DHT22;10732;51.472;6.466;2022-10-16T04:59:15;12.50;99.90
21149;DHT22;10732;51.472;6.466;2022-10-16T05:01:41;12.60;99.90
21149;DHT22;10732;51.472;6.466;2022-10-16T05:04:07;12.60;99.90
21149;DHT22;10732;51.472;6.466;2022-10-16T05:06:33;12.50;99.90
21149;DHT22;10732;51.472;6.466;2022-10-16T05:08:58;12.60;99.90
21149;DHT22;10732;51.472;6.466;2022-10-16T05:11:24;12.60;99.90
21149;DHT22;10732;51.472;6.466;2022-10-16T05:13:49;12.60;99.90
21149;DHT22;10732;51.472;6.466;2022-10-16T05:16:15;12.60;99.90
21149;DHT22;10732;51.472;6.466;2022-10-16T05:18:41;12.60;99.90
21149;DHT22;10732;51.472;6.466;2022-10-16T05:21:06;12.60;99.90
21149;DHT22;10732;51.472;6.466;2022-10-16T05:23:32;12.60;99.90
21149;DHT22;10732;51.472;6.466;2022-10-16T05:25:58;12.50;99.90
21149;DHT22;10732;51.472;6.466;2022-10-16T05:28:26;12.60;99.90
21149;DHT22;10732;51.472;6.466;2022-10-16T05:30:52;12.60;99.90
21149;DHT22;10732;51.472;6.466;2022-10-16T05:33:23;12.50;99.90
21149;DHT22;10732;51.472;6.466;2022-10-16T05:35:49;12.50;99.90
21149;DHT22;10732;51.472;6.466;2022-10-16T05:38:15;12.60;99.90
21149;DHT22;10732;51.472;6.466;2022-10-16T05:40:41;12.60;99.90
21149;DHT22;10732;51.472;6.466;2022-10-16T05:43:07;12.60;99.90
21149;DHT22;10732;51.472;6.466;2022-10-16T05:45:33;12.60;99.90
21149;DHT22;10732;51.472;6.466;2022-10-16T05:47:59;12.60;99.90
21149;DHT22;10732;51.472;6.466;2022-10-16T05:50:25;12.50;99.90
21149;DHT22;10732;51.472;6.466;2022-10-16T05:52:50;12.50;99.90
21149;DHT22;10732;51.472;6.466;2022-10-16T05:55:16;12.50;99.90
21149;DHT22;10732;51.472;6.466;2022-10-16T05:57:41;12.50;99.90
21149;DHT22;10732;51.472;6.466;2022-10-16T06:00:07;12.50;99.90
21149;DHT22;10732;51.472;6.466;2022-10-16T06:02:33;12.40;99.90
21149;DHT22;10732;51.472;6.466;2022-10-16T06:04:59;12.50;99.90
21149;DHT22;10732;51.472;6.466;2022-10-16T06:07:24;12.50;99.90
21149;DHT22;10732;51.472;6.466;2022-10-16T06:09:51;12.50;99.90
21149;DHT22;10732;51.472;6.466;2022-10-16T06:12:16;12.50;99.90
21149;DHT22;10732;51.472;6.466;2022-10-16T06:14:42;12.50;99.90
21149;DHT22;10732;51.472;6.466;2022-10-16T06:17:07;12.40;99.90
21149;DHT22;10732;51.472;6.466;2022-10-16T06:19:33;12.50;99.90
21149;DHT22;10732;51.472;6.466;2022-10-16T06:21:58;12.50;99.90
21149;DHT22;10732;51.472;6.466;2022-10-16T06:24:25;12.50;99.90
21149;DHT22;10732;51.472;6.466;2022-10-16T06:26:50;12.50;99.90
21149;DHT22;10732;51.472;6.466;2022-10-16T06:29:16;12.50;99.90
21149;DHT22;10732;51.472;6.466;2022-10-16T06:31:41;12.50;99.90
21149;DHT22;10732;51.472;6.466;2022-10-16T06:34:09;12.50;99.90
21149;DHT22;10732;51.472;6.466;2022-10-16T06:36:36;12.60;99.90
21149;DHT22;10732;51.472;6.466;2022-10-16T06:39:02;12.50;99.90
21149;DHT22;10732;51.472;6.466;2022-10-16T06:41:28;12.50;99.90
21149;DHT22;10732;51.472;6.466;2022-10-16T06:43:54;12.50;99.90
21149;DHT22;10732;51.472;6.466;2022-10-16T06:46:22;12.50;99.90
21149;DHT22;10732;51.472;6.466;2022-10-16T06:48:48;12.50;99.90
21149;DHT22;10732;51.472;6.466;2022-10-16T06:51:17;12.50;99.90
21149;DHT22;10732;51.472;6.466;2022-10-16T06:53:48;12.50;99.90
21149;DHT22;10732;51.472;6.466;2022-10-16T06:56:23;12.40;99.90
21149;DHT22;10732;51.472;6.466;2022-10-16T06:58:49;12.50;99.90
21149;DHT22;10732;51.472;6.466;2022-10-16T07:01:17;12.40;99.90
21149;DHT22;10732;51.472;6.466;2022-10-16T07:03:43;12.30;99.90
21149;DHT22;10732;51.472;6.466;2022-10-16T07:06:13;12.30;99.90
21149;DHT22;10732;51.472;6.466;2022-10-16T07:08:40;12.20;99.90
21149;DHT22;10732;51.472;6.466;2022-10-16T07:11:18;12.20;99.90
21149;DHT22;10732;51.472;6.466;2022-10-16T07:13:45;12.20;99.90
21149;DHT22;10732;51.472;6.466;2022-10-16T07:16:12;12.20;99.90
21149;DHT22;10732;51.472;6.466;2022-10-16T07:18:37;12.20;99.90
21149;DHT22;10732;51.472;6.466;2022-10-16T07:21:06;12.30;99.90
21149;DHT22;10732;51.472;6.466;2022-10-16T07:23:32;12.50;99.90
21149;DHT22;10732;51.472;6.466;2022-10-16T07:25:58;12.60;99.90
21149;DHT22;10732;51.472;6.466;2022-10-16T07:28:23;12.70;99.90
21149;DHT22;10732;51.472;6.466;2022-10-16T07:30:49;12.80;99.90
21149;DHT22;10732;51.472;6.466;2022-10-16T07:33:14;12.90;99.90
21149;DHT22;10732;51.472;6.466;2022-10-16T07:35:54;13.00;99.90
21149;DHT22;10732;51.472;6.466;2022-10-16T07:38:20;13.20;99.90
21149;DHT22;10732;51.472;6.466;2022-10-16T07:40:46;13.30;99.90
21149;DHT22;10732;51.472;6.466;2022-10-16T07:43:12;13.40;99.90
21149;DHT22;10732;51.472;6.466;2022-10-16T07:45:46;13.50;99.90
21149;DHT22;10732;51.472;6.466;2022-10-16T07:48:11;13.60;99.90
21149;DHT22;10732;51.472;6.466;2022-10-16T07:50:37;13.70;99.90
21149;DHT22;10732;51.472;6.466;2022-10-16T07:53:03;13.90;99.90
21149;DHT22;10732;51.472;6.466;2022-10-16T07:55:28;14.80;99.90
21149;DHT22;10732;51.472;6.466;2022-10-16T07:57:54;16.30;99.90
21149;DHT22;10732;51.472;6.466;2022-10-16T08:00:20;17.50;99.90
21149;DHT22;10732;51.472;6.466;2022-10-16T08:02:46;18.40;99.90
21149;DHT22;10732;51.472;6.466;2022-10-16T08:05:11;18.80;99.90
21149;DHT22;10732;51.472;6.466;2022-10-16T08:07:36;20.00;99.90
21149;DHT22;10732;51.472;6.466;2022-10-16T08:10:02;20.20;92.00
21149;DHT22;10732;51.472;6.466;2022-10-16T08:12:28;20.30;74.90
21149;DHT22;10732;51.472;6.466;2022-10-16T08:14:53;21.60;1.00
21149;DHT22;10732;51.472;6.466;2022-10-16T08:17:19;21.60;81.50
21149;DHT22;10732;51.472;6.466;2022-10-16T08:19:48;21.60;99.90
21149;DHT22;10732;51.472;6.466;2022-10-16T08:22:14;21.80;1.00
21149;DHT22;10732;51.472;6.466;2022-10-16T08:24:40;22.90;99.90
21149;DHT22;10732;51.472;6.466;2022-10-16T08:27:06;22.90;1.00
21149;DHT22;10732;51.472;6.466;2022-10-16T08:29:32;22.90;99.90
21149;DHT22;10732;51.472;6.466;2022-10-16T08:31:58;21.90;78.80
21149;DHT22;10732;51.472;6.466;2022-10-16T08:34:23;22.30;1.00
21149;DHT22;10732;51.472;6.466;2022-10-16T08:36:49;22.80;1.00
21149;DHT22;10732;51.472;6.466;2022-10-16T08:39:15;23.00;1.00
21149;DHT22;10732;51.472;6.466;2022-10-16T08:44:33;22.70;1.00
21149;DHT22;10732;51.472;6.466;2022-10-16T08:47:25;22.50;1.00
21149;DHT22;10732;51.472;6.466;2022-10-16T08:49:59;22.90;1.00
21149;DHT22;10732;51.472;6.466;2022-10-16T08:52:29;23.80;1.00
21149;DHT22;10732;51.472;6.466;2022-10-16T08:54:56;23.80;1.00
21149;DHT22;10732;51.472;6.466;2022-10-16T08:57:24;22.90;1.00
21149;DHT22;10732;51.472;6.466;2022-10-16T08:59:51;23.50;1.00
21149;DHT22;10732;51.472;6.466;2022-10-16T09:02:38;24.10;1.00
21149;DHT22;10732;51.472;6.466;2022-10-16T09:05:22;24.00;99.90
21149;DHT22;10732;51.472;6.466;2022-10-16T09:08:27;24.10;99.90
21149;DHT22;10732;51.472;6.466;2022-10-16T09:17:39;24.30;99.90
21149;DHT22;10732;51.472;6.466;2022-10-16T09:22:35;24.40;99.90
21149;DHT22;10732;51.472;6.466;2022-10-16T09:25:11;24.60;99.90
21149;DHT22;10732;51.472;6.466;2022-10-16T09:27:37;24.50;99.90
21149;DHT22;10732;51.472;6.466;2022-10-16T09:30:23;25.10;99.90
21149;DHT22;10732;51.472;6.466;2022-10-16T09:32:52;24.40;99.90
21149;DHT22;10732;51.472;6.466;2022-10-16T09:35:25;23.80;99.90
21149;DHT22;10732;51.472;6.466;2022-10-16T09:37:54;23.80;99.90
21149;DHT22;10732;51.472;6.466;2022-10-16T09:40:32;24.40;99.90
21149;DHT22;10732;51.472;6.466;2022-10-16T09:43:34;23.90;99.90
21149;DHT22;10732;51.472;6.466;2022-10-16T09:46:21;23.90;99.90
21149;DHT22;10732;51.472;6.466;2022-10-16T09:48:51;23.90;99.90
21149;DHT22;10732;51.472;6.466;2022-10-16T09:51:22;24.00;99.90
21149;DHT22;10732;51.472;6.466;2022-10-16T09:53:48;23.80;99.90
21149;DHT22;10732;51.472;6.466;2022-10-16T09:56:31;23.60;99.90
21149;DHT22;10732;51.472;6.466;2022-10-16T09:59:18;23.60;99.90
21149;DHT22;10732;51.472;6.466;2022-10-16T10:01:50;24.10;99.90
21149;DHT22;10732;51.472;6.466;2022-10-16T10:04:17;24.20;99.90
21149;DHT22;10732;51.472;6.466;2022-10-16T10:06:49;23.30;99.90
21149;DHT22;10732;51.472;6.466;2022-10-16T10:09:24;23.60;99.90
21149;DHT22;10732;51.472;6.466;2022-10-16T10:12:01;24.00;99.90
21149;DHT22;10732;51.472;6.466;2022-10-16T10:14:47;24.40;99.90
21149;DHT22;10732;51.472;6.466;2022-10-16T10:17:17;24.30;99.90
21149;DHT22;10732;51.472;6.466;2022-10-16T10:22:29;24.70;99.90
21149;DHT22;10732;51.472;6.466;2022-10-16T10:30:22;24.60;99.90
21149;DHT22;10732;51.472;6.466;2022-10-16T10:36:08;24.80;99.90
21149;DHT22;10732;51.472;6.466;2022-10-16T10:38:58;24.80;99.90
21149;DHT22;10732;51.472;6.466;2022-10-16T10:50:14;24.10;99.90
21149;DHT22;10732;51.472;6.466;2022-10-16T10:53:09;24.00;99.90
21149;DHT22;10732;51.472;6.466;2022-10-16T11:03:26;25.30;99.90
21149;DHT22;10732;51.472;6.466;2022-10-16T11:05:58;26.00;99.90
21149;DHT22;10732;51.472;6.466;2022-10-16T11:08:38;25.50;99.90
21149;DHT22;10732;51.472;6.466;2022-10-16T11:11:15;25.00;99.90
21149;DHT22;10732;51.472;6.466;2022-10-16T11:13:54;23.80;99.90
21149;DHT22;10732;51.472;6.466;2022-10-16T11:19:22;21.60;99.90
21149;DHT22;10732;51.472;6.466;2022-10-16T11:22:19;21.70;99.90
21149;DHT22;10732;51.472;6.466;2022-10-16T11:24:49;22.20;99.90
21149;DHT22;10732;51.472;6.466;2022-10-16T11:27:21;22.50;99.90
21149;DHT22;10732;51.472;6.466;2022-10-16T11:30:00;23.20;99.90
21149;DHT22;10732;51.472;6.466;2022-10-16T11:32:35;23.50;99.90
21149;DHT22;10732;51.472;6.466;2022-10-16T11:35:25;24.00;99.90
21149;DHT22;10732;51.472;6.466;2022-10-16T11:37:55;23.50;99.90
21149;DHT22;10732;51.472;6.466;2022-10-16T11:40:28;23.60;99.90
21149;DHT22;10732;51.472;6.466;2022-10-16T11:43:31;24.00;99.90
21149;DHT22;10732;51.472;6.466;2022-10-16T11:46:02;23.70;99.90
21149;DHT22;10732;51.472;6.466;2022-10-16T11:48:43;22.90;99.90
21149;DHT22;10732;51.472;6.466;2022-10-16T11:57:44;21.00;99.90
21149;DHT22;10732;51.472;6.466;2022-10-16T12:03:23;20.40;99.90
21149;DHT22;10732;51.472;6.466;2022-10-16T12:06:01;20.90;99.90
21149;DHT22;10732;51.472;6.466;2022-10-16T12:08:30;21.30;99.90
21149;DHT22;10732;51.472;6.466;2022-10-16T12:11:23;21.40;99.90
21149;DHT22;10732;51.472;6.466;2022-10-16T12:13:50;21.40;99.90
21149;DHT22;10732;51.472;6.466;2022-10-16T12:18:45;21.00;99.90
21149;DHT22;10732;51.472;6.466;2022-10-16T12:21:12;20.80;99.90
21149;DHT22;10732;51.472;6.466;2022-10-16T12:23:55;20.70;99.90
21149;DHT22;10732;51.472;6.466;2022-10-16T12:26:47;20.60;99.90
21149;DHT22;10732;51.472;6.466;2022-10-16T12:29:23;20.30;99.90
21149;DHT22;10732;51.472;6.466;2022-10-16T12:31:49;20.40;99.90
21149;DHT22;10732;51.472;6.466;2022-10-16T12:34:31;20.40;99.90
21149;DHT22;10732;51.472;6.466;2022-10-16T12:37:12;20.50;99.90
21149;DHT22;10732;51.472;6.466;2022-10-16T12:39:39;20.70;99.90
21149;DHT22;10732;51.472;6.466;2022-10-16T12:42:19;20.90;99.90
21149;DHT22;10732;51.472;6.466;2022-10-16T12:44:45;20.90;99.90
21149;DHT22;10732;51.472;6.466;2022-10-16T12:49:53;21.10;99.90
21149;DHT22;10732;51.472;6.466;2022-10-16T12:52:35;21.10;99.90
21149;DHT22;10732;51.472;6.466;2022-10-16T12:55:01;21.20;99.90
21149;DHT22;10732;51.472;6.466;2022-10-16T12:57:30;21.00;99.90
21149;DHT22;10732;51.472;6.466;2022-10-16T13:00:26;21.00;99.90
21149;DHT22;10732;51.472;6.466;2022-10-16T13:08:49;20.00;99.90
21149;DHT22;10732;51.472;6.466;2022-10-16T13:23:09;19.10;99.90
21149;DHT22;10732;51.472;6.466;2022-10-16T13:25:49;18.70;99.90
21149;DHT22;10732;51.472;6.466;2022-10-16T13:28:22;18.90;99.90
21149;DHT22;10732;51.472;6.466;2022-10-16T13:30:54;19.00;99.90
21149;DHT22;10732;51.472;6.466;2022-10-16T13:33:47;19.00;99.90
21149;DHT22;10732;51.472;6.466;2022-10-16T13:36:44;19.40;99.90
21149;DHT22;10732;51.472;6.466;2022-10-16T13:39:14;19.60;99.90
21149;DHT22;10732;51.472;6.466;2022-10-16T13:41:40;19.70;99.90
21149;DHT22;10732;51.472;6.466;2022-10-16T13:44:14;19.60;99.90
21149;DHT22;10732;51.472;6.466;2022-10-16T13:46:41;19.40;99.90
21149;DHT22;10732;51.472;6.466;2022-10-16T13:51:38;19.50;99.90
21149;DHT22;10732;51.472;6.466;2022-10-16T13:54:04;19.90;99.90
21149;DHT22;10732;51.472;6.466;2022-10-16T13:56:32;19.90;99.90
21149;DHT22;10732;51.472;6.466;2022-10-16T14:01:28;19.60;99.90
21149;DHT22;10732;51.472;6.466;2022-10-16T14:04:04;19.60;99.90
21149;DHT22;10732;51.472;6.466;2022-10-16T14:06:31;19.40;99.90
21149;DHT22;10732;51.472;6.466;2022-10-16T14:09:07;19.30;99.90
21149;DHT22;10732;51.472;6.466;2022-10-16T14:11:42;19.20;99.90
21149;DHT22;10732;51.472;6.466;2022-10-16T14:14:11;18.90;99.90
21149;DHT22;10732;51.472;6.466;2022-10-16T14:16:40;18.90;99.90
21149;DHT22;10732;51.472;6.466;2022-10-16T14:19:20;18.90;99.90
21149;DHT22;10732;51.472;6.466;2022-10-16T14:21:47;18.90;99.90
21149;DHT22;10732;51.472;6.466;2022-10-16T14:24:22;19.00;99.90
21149;DHT22;10732;51.472;6.466;2022-10-16T14:26:49;19.10;99.90
21149;DHT22;10732;51.472;6.466;2022-10-16T14:29:19;19.10;99.90
21149;DHT22;10732;51.472;6.466;2022-10-16T14:32:01;19.10;99.90
21149;DHT22;10732;51.472;6.466;2022-10-16T14:34:36;19.20;99.90
21149;DHT22;10732;51.472;6.466;2022-10-16T14:37:24;19.30;99.90
21149;DHT22;10732;51.472;6.466;2022-10-16T14:39:51;19.10;99.90
21149;DHT22;10732;51.472;6.466;2022-10-16T14:42:18;19.00;99.90
21149;DHT22;10732;51.472;6.466;2022-10-16T14:44:45;19.00;99.90
21149;DHT22;10732;51.472;6.466;2022-10-16T14:47:14;18.90;99.90
21149;DHT22;10732;51.472;6.466;2022-10-16T14:49:41;19.00;99.90
21149;DHT22;10732;51.472;6.466;2022-10-16T14:52:11;19.10;99.90
21149;DHT22;10732;51.472;6.466;2022-10-16T14:54:37;19.00;99.90
21149;DHT22;10732;51.472;6.466;2022-10-16T14:57:04;19.00;99.90
21149;DHT22;10732;51.472;6.466;2022-10-16T14:59:38;18.90;99.90
21149;DHT22;10732;51.472;6.466;2022-10-16T15:02:30;18.90;99.90
21149;DHT22;10732;51.472;6.466;2022-10-16T15:04:56;18.70;99.90
21149;DHT22;10732;51.472;6.466;2022-10-16T15:07:23;18.50;99.90
21149;DHT22;10732;51.472;6.466;2022-10-16T15:09:49;18.70;99.90
21149;DHT22;10732;51.472;6.466;2022-10-16T15:12:15;18.70;99.90
21149;DHT22;10732;51.472;6.466;2022-10-16T15:14:44;18.70;99.90
21149;DHT22;10732;51.472;6.466;2022-10-16T15:17:10;18.80;99.90
21149;DHT22;10732;51.472;6.466;2022-10-16T15:19:36;18.80;99.90
21149;DHT22;10732;51.472;6.466;2022-10-16T15:22:02;18.90;99.90
21149;DHT22;10732;51.472;6.466;2022-10-16T15:24:27;18.90;99.90
21149;DHT22;10732;51.472;6.466;2022-10-16T15:26:53;19.00;99.90
21149;DHT22;10732;51.472;6.466;2022-10-16T15:29:18;19.00;99.90
21149;DHT22;10732;51.472;6.466;2022-10-16T15:31:44;18.90;99.90
21149;DHT22;10732;51.472;6.466;2022-10-16T15:34:12;18.80;99.90
21149;DHT22;10732;51.472;6.466;2022-10-16T15:36:39;18.70;99.90
21149;DHT22;10732;51.472;6.466;2022-10-16T15:39:17;18.60;99.90
21149;DHT22;10732;51.472;6.466;2022-10-16T15:41:45;18.40;99.90
21149;DHT22;10732;51.472;6.466;2022-10-16T15:44:16;18.40;99.90
21149;DHT22;10732;51.472;6.466;2022-10-16T15:46:41;18.40;99.90
21149;DHT22;10732;51.472;6.466;2022-10-16T15:49:08;18.50;99.90
21149;DHT22;10732;51.472;6.466;2022-10-16T15:51:38;18.50;99.90
21149;DHT22;10732;51.472;6.466;2022-10-16T15:54:04;18.30;99.90
21149;DHT22;10732;51.472;6.466;2022-10-16T15:56:29;18.30;99.90
21149;DHT22;10732;51.472;6.466;2022-10-16T15:58:58;18.20;99.90
21149;DHT22;10732;51.472;6.466;2022-10-16T16:01:24;18.20;99.90
21149;DHT22;10732;51.472;6.466;2022-10-16T16:03:53;18.10;99.90
21149;DHT22;10732;51.472;6.466;2022-10-16T16:06:18;18.00;99.90
21149;DHT22;10732;51.472;6.466;2022-10-16T16:08:44;18.00;99.90
21149;DHT22;10732;51.472;6.466;2022-10-16T16:11:12;17.80;99.90
21149;DHT22;10732;51.472;6.466;2022-10-16T16:13:38;17.50;99.90
21149;DHT22;10732;51.472;6.466;2022-10-16T16:16:13;17.40;99.90
21149;DHT22;10732;51.472;6.466;2022-10-16T16:18:39;17.40;99.90
21149;DHT22;10732;51.472;6.466;2022-10-16T16:21:05;17.30;99.90
21149;DHT22;10732;51.472;6.466;2022-10-16T16:23:31;17.20;99.90
21149;DHT22;10732;51.472;6.466;2022-10-16T16:26:24;17.10;99.90
21149;DHT22;10732;51.472;6.466;2022-10-16T16:28:51;17.00;99.90
21149;DHT22;10732;51.472;6.466;2022-10-16T16:31:17;17.00;99.90
21149;DHT22;10732;51.472;6.466;2022-10-16T16:33:42;16.90;99.90
21149;DHT22;10732;51.472;6.466;2022-10-16T16:36:08;16.80;99.90
21149;DHT22;10732;51.472;6.466;2022-10-16T16:38:34;16.80;99.90
21149;DHT22;10732;51.472;6.466;2022-10-16T16:41:17;16.80;99.90
21149;DHT22;10732;51.472;6.466;2022-10-16T16:43:43;16.70;99.90
21149;DHT22;10732;51.472;6.466;2022-10-16T16:46:09;16.70;99.90
21149;DHT22;10732;51.472;6.466;2022-10-16T16:48:35;16.60;99.90
21149;DHT22;10732;51.472;6.466;2022-10-16T16:51:08;16.50;99.90
21149;DHT22;10732;51.472;6.466;2022-10-16T16:53:35;16.50;99.90
21149;DHT22;10732;51.472;6.466;2022-10-16T16:56:02;16.40;99.90
21149;DHT22;10732;51.472;6.466;2022-10-16T16:58:28;16.40;99.90
21149;DHT22;10732;51.472;6.466;2022-10-16T17:00:53;16.40;99.90
21149;DHT22;10732;51.472;6.466;2022-10-16T17:03:19;16.40;99.90
21149;DHT22;10732;51.472;6.466;2022-10-16T17:05:55;16.30;99.90
21149;DHT22;10732;51.472;6.466;2022-10-16T17:08:21;16.30;99.90
21149;DHT22;10732;51.472;6.466;2022-10-16T17:10:46;16.20;99.90
21149;DHT22;10732;51.472;6.466;2022-10-16T17:13:17;16.10;99.90
21149;DHT22;10732;51.472;6.466;2022-10-16T17:15:46;16.10;99.90
21149;DHT22;10732;51.472;6.466;2022-10-16T17:18:12;16.10;99.90
21149;DHT22;10732;51.472;6.466;2022-10-16T17:20:38;16.00;99.90
21149;DHT22;10732;51.472;6.466;2022-10-16T17:23:03;16.00;99.90